Terminal Aerodrome Forecast
Issued by NWS

Home | Current Version | Previous Version | Text Only | Print | Product List | Glossary On
Versions: 1 2 3 4 5 6 7 8 9 10 11 12 13 14 15 16 17 18 19 20 21 22 23 24 25 26 27 28 29 30 31 32 33 34 35 36 37 38 39 40 41 42 43 44 45
000
FTUS45 KBOI 251731
TAFJER
TAF
KJER 251731Z 2518/2618 04011KT P6SM SCT020 BKN080
     FM252000 04012KT P6SM BKN015
     FM260100 04010KT 1SM BR OVC004
     FM260500 04012G22KT P6SM OVC015
     FM261600 04015G28KT P6SM BKN025=

USA.gov is the U.S. government's official web portal to all federal, state and local government web resources and services.